Terminal Aerodrome Forecast
Issued by NWS Atlanta, GA

Home | Current Version | Previous Version | Text Only | Print | Product List | Glossary On
Versions: 1 2 3 4 5 6 7 8 9 10 11 12 13 14 15 16 17 18 19 20
684
FTUS42 KFFC 252149 AAB
TAFCSG
TAF AMD
KCSG 252149Z 2522/2618 12005KT P6SM VCSH SCT050 SCT080
     FM260200 12003KT P6SM FEW250
     FM261000 00000KT P6SM SCT012
     FM261400 09004KT P6SM BKN025
     FM261700 11004KT P6SM SCT035=

USA.gov is the U.S. government's official web portal to all federal, state and local government web resources and services.